Flight Track Log - Related Links

Times and Time Zones

All times are in EDT time to prevent confusion due to time zone crossing. See the N83WD flight status page for this flight to view local times or setup timezone preferences in your user account.

Time Position Orientation Groundspeed Altitude Reporting Facility
EDT Latitude Longitude Course Direction KTS MPH feet Rate Location/Type
Wed 02:23:00 PM 32.4251 -80.7471 55° Northeast  Level FlightAware Approximate
Wed 02:24:00 PM 32.4600 -80.6889 55° Northeast  Level FlightAware Approximate
Wed 02:24:59 PM 32.2594 -81.0303 47° Northeast 164 189 7,200  Level Jacksonville Center
Wed 02:25:00 PM 32.4935 -80.6296 59° Northeast  Level FlightAware Approximate
Wed 02:25:59 PM 32.2858 -80.9881 54° Northeast 170 196 8,200  Level Jacksonville Center
Wed 02:26:00 PM 32.5243 -80.5681 59° Northeast  Level FlightAware Approximate
Wed 02:26:59 PM 32.3144 -80.9433 53° Northeast 165 190 9,200  Level Jacksonville Center
Wed 02:27:00 PM 32.5597 -80.5105 52° Northeast  Level FlightAware Approximate
Wed 02:27:59 PM 32.3389 -80.9058 52° Northeast 165 190 10,000  Level Jacksonville Center
Wed 02:28:00 PM 32.5971 -80.4544 52° Northeast  Level FlightAware Approximate
Wed 02:28:59 PM 32.3694 -80.8583 53° Northeast 165 190 10,000  Level Jacksonville Center
Wed 02:29:00 PM 32.6346 -80.3984 47° Northeast  Level FlightAware Approximate
Wed 02:29:59 PM 32.4083 -80.8058 49° Northeast 179 206 10,700  Level Jacksonville Center
Wed 02:30:00 PM 32.6755 -80.3458 47° Northeast  Level FlightAware Approximate
Wed 02:30:59 PM 32.4306 -80.7611 60° Northeast 179 206 11,000  Level Jacksonville Center
Wed 02:31:59 PM 32.4589 -80.7186 52° Northeast 172 198 12,200 1,050 Climbing Jacksonville Center
Wed 02:32:59 PM 32.4875 -80.6761 51° Northeast 166 191 13,100 850 Climbing Jacksonville Center
Wed 02:33:59 PM 32.5158 -80.6311 53° Northeast 161 185 13,900 800 Climbing Jacksonville Center
Wed 02:34:59 PM 32.5442 -80.5858 53° Northeast 161 185 14,700 800 Climbing Jacksonville Center
Wed 02:35:59 PM 32.5747 -80.5408 51° Northeast 161 185 15,500 700 Climbing Jacksonville Center
Wed 02:36:59 PM 32.6031 -80.4956 53° Northeast 161 185 16,100 750 Climbing Jacksonville Center
Wed 02:37:59 PM 32.6336 -80.4481 53° Northeast 166 191 17,000 850 Climbing Jacksonville Center
Wed 02:38:59 PM 32.6661 -80.4028 50° Northeast 166 191 17,800 650 Climbing Jacksonville Center
Wed 02:39:59 PM 32.6964 -80.3525 54° Northeast 171 197 18,300 650 Climbing Jacksonville Center
Wed 02:40:59 PM 32.7286 -80.3022 53° Northeast 176 203 19,100 700 Climbing Jacksonville Center
Wed 02:41:59 PM 32.7631 -80.2494 52° Northeast 181 208 19,700 650 Climbing Jacksonville Center
Wed 02:42:59 PM 32.7975 -80.1964 52° Northeast 186 214 20,400 600 Climbing Jacksonville Center
Wed 02:43:59 PM 32.8278 -80.1436 56° Northeast 186 214 20,900 250 Climbing Jacksonville Center
Wed 02:44:59 PM 32.8661 -80.0881 51° Northeast 203 234 20,900  Level Jacksonville Center
Wed 02:45:59 PM 32.9044 -80.0325 51° Northeast 208 239 20,900  Level Jacksonville Center
Wed 02:46:59 PM 32.9536 -79.9864 38° Northeast 208 239 20,900  Level Jacksonville Center
Wed 02:47:59 PM 33.0006 -79.9378 41° Northeast 214 246 20,900  Level Jacksonville Center
Wed 02:48:59 PM 33.0494 -79.8914 38° Northeast 214 246 20,900  Level Jacksonville Center
Wed 02:49:59 PM 33.0961 -79.8403 43° Northeast 219 252 20,900  Level Jacksonville Center
Wed 02:50:59 PM 33.1453 -79.7989 35° Northeast 219 252 20,900  Level Jacksonville Center
Wed 02:51:59 PM 33.1922 -79.7528 39° Northeast 219 252 20,900  Level Jacksonville Center
Wed 02:52:59 PM 33.2389 -79.7064 40° Northeast 219 252 20,900  Level Jacksonville Center
Wed 02:53:59 PM 33.2878 -79.6575 40° Northeast 219 252 20,900 50 Level Jacksonville Center
Wed 02:54:59 PM 33.3369 -79.6158 35° Northeast 219 252 21,000 50 Climbing Jacksonville Center
Wed 02:55:59 PM 33.3858 -79.5717 37° Northeast 219 252 21,000  Level Jacksonville Center
Wed 02:56:59 PM 33.4347 -79.5275 37° Northeast 219 252 21,000  Level Jacksonville Center
Wed 02:57:59 PM 33.4772 -79.4761 45° Northeast 219 252 21,000  Level Jacksonville Center
Wed 02:58:59 PM 33.5236 -79.4244 43° Northeast 219 252 21,000  Level Jacksonville Center
Wed 02:59:59 PM 33.5706 -79.3803 38° Northeast 219 252 21,000  Level Jacksonville Center
Wed 03:00:59 PM 33.6172 -79.3336 40° Northeast 219 252 21,000  Level Jacksonville Center
Wed 03:01:59 PM 33.6658 -79.2867 39° Northeast 219 252 21,000  Level Jacksonville Center
Wed 03:02:59 PM 33.7147 -79.2397 39° Northeast 213 245 21,000  Level Jacksonville Center
Wed 03:03:59 PM 33.7614 -79.1928 40° Northeast 208 239 21,000  Level Jacksonville Center
Wed 03:04:59 PM 33.8058 -79.1486 40° Northeast 208 239 21,000  Level Jacksonville Center
Wed 03:05:59 PM 33.8544 -79.1014 39° Northeast 208 239 21,000  Level Jacksonville Center
Wed 03:06:59 PM 33.9011 -79.0569 38° Northeast 208 239 21,000  Level Jacksonville Center
Wed 03:09:20 PM 34.0058 -78.9511 40° Northeast 209 241 21,000  Level Washington Center
Wed 03:10:20 PM 34.0531 -78.9028 40° Northeast 209 241 21,000  Level Washington Center
Wed 03:11:18 PM 34.1000 -78.8597 37° Northeast 204 235 21,000  Level Washington Center
Wed 03:12:19 PM 34.1472 -78.8114 40° Northeast 204 235 21,000  Level Washington Center
Wed 03:13:20 PM 34.1925 -78.7628 42° Northeast 204 235 21,000  Level Washington Center
Wed 03:14:18 PM 34.2417 -78.7169 38° Northeast 204 235 21,000  Level Washington Center
Wed 03:15:20 PM 34.2931 -78.6686 38° Northeast 204 235 21,000  Level Washington Center
Wed 03:16:18 PM 34.3400 -78.6203 40° Northeast 210 242 21,000  Level Washington Center
Wed 03:17:19 PM 34.3872 -78.5692 42° Northeast 218 251 21,000  Level Washington Center
Wed 03:18:20 PM 34.4344 -78.5206 40° Northeast 218 251 21,000  Level Washington Center
Wed 03:19:20 PM 34.4814 -78.4742 39° Northeast 213 245 21,000 -50 Level Washington Center
Wed 03:20:19 PM 34.5283 -78.4281 39° Northeast 213 245 20,900 -51 Descending Washington Center
Wed 03:21:18 PM 34.5756 -78.3792 40° Northeast 219 252 20,900  Level Washington Center
Wed 03:22:19 PM 34.6244 -78.3331 38° Northeast 214 246 20,900  Level Washington Center
Wed 03:23:19 PM 34.6736 -78.2842 39° Northeast 214 246 20,900  Level Washington Center
Wed 03:24:20 PM 34.7206 -78.2350 41° Northeast 214 246 20,900  Level Washington Center
Wed 03:25:18 PM 34.7697 -78.1861 39° Northeast 214 246 20,900  Level Washington Center
Wed 03:26:19 PM 34.8058 -78.1469 42° Northeast 214 246 20,900  Level Washington Center
Wed 03:27:20 PM 34.8572 -78.0903 42° Northeast 214 246 20,900 50 Level Washington Center
Wed 03:28:18 PM 34.9064 -78.0386 41° Northeast 214 246 21,000 50 Climbing Washington Center
Wed 03:29:19 PM 34.9531 -77.9917 40° Northeast 214 246 21,000 -50 Level Washington Center
Wed 03:30:19 PM 35.0022 -77.9425 39° Northeast 214 246 20,900 -50 Descending Washington Center
Wed 03:31:18 PM 35.0489 -77.8906 42° Northeast 214 246 20,900  Level Washington Center
Wed 03:32:19 PM 35.1000 -77.8414 38° Northeast 214 246 20,900  Level Washington Center
Wed 03:33:19 PM 35.1489 -77.7919 40° Northeast 214 246 20,900  Level Washington Center
Wed 03:34:20 PM 35.1958 -77.7372 44° Northeast 214 246 20,900  Level Washington Center
Wed 03:35:18 PM 35.2447 -77.6850 41° Northeast 219 252 20,900 50 Level Washington Center
Wed 03:36:20 PM 35.2936 -77.6381 38° Northeast 219 252 21,000 50 Climbing Washington Center
Wed 03:37:18 PM 35.3425 -77.5858 41° Northeast 219 252 21,000  Level Washington Center
Wed 03:38:19 PM 35.3911 -77.5361 40° Northeast 219 252 21,000  Level Washington Center
Wed 03:39:20 PM 35.4442 -77.4939 33° Northeast 219 252 21,000  Level Washington Center
Wed 03:40:18 PM 35.4969 -77.4494 34° Northeast 225 259 21,000  Level Washington Center
Wed 03:41:19 PM 35.5478 -77.4044 36° Northeast 225 259 21,000 -49 Level Washington Center
Wed 03:42:20 PM 35.5983 -77.3675 31° Northeast 225 259 20,900 -50 Descending Washington Center
Wed 03:43:20 PM 35.6511 -77.3278 31° Northeast 219 252 20,900  Level Washington Center
Wed 03:44:18 PM 35.7039 -77.2878 32° Northeast 214 246 20,900  Level Washington Center
Wed 03:45:18 PM 35.7564 -77.2481 32° Northeast 214 246 20,900 50 Level Washington Center
Wed 03:46:19 PM 35.8114 -77.2081 31° Northeast 214 246 21,000  Climbing Washington Center
Wed 03:47:19 PM 35.8597 -77.1681 34° Northeast 214 246 20,900 -50 Descending Washington Center
Wed 03:48:18 PM 35.9189 -77.1258 30° Northeast 219 252 20,900 50 Level Washington Center
Wed 03:49:18 PM 35.9714 -77.0858 32° Northeast 214 246 21,000  Climbing Washington Center
Wed 03:50:04 PM 36.0114 -77.0608 27° Northeast 224 258 20,900  Descending Washington Center
Wed 03:50:19 PM 36.0242 -77.0431 48° Northeast 220 253 21,000  Climbing Washington Center
Wed 03:51:20 PM 36.0769 -77.0003 33° Northeast 220 253 20,900  Descending Washington Center
Wed 03:52:24 PM 36.1378 -76.9653 25° Northeast 228 262 21,000  Climbing Washington Center
Wed 03:53:19 PM 36.1861 -76.9225 36° Northeast 220 253 20,900 -52 Descending Washington Center
Wed 03:54:20 PM 36.2408 -76.8847 29° Northeast 220 253 20,900  Level Washington Center
Wed 03:55:20 PM 36.2956 -76.8392 34° Northeast 220 253 20,900  Level Washington Center
Wed 03:56:18 PM 36.3503 -76.7989 31° Northeast 225 259 20,900  Level Washington Center
Wed 03:57:18 PM 36.4028 -76.7583 32° Northeast 230 265 20,900  Level Washington Center
Wed 03:58:19 PM 36.4594 -76.7153 31° Northeast 230 265 20,900  Level Washington Center
Wed 03:59:20 PM 36.5142 -76.6775 29° Northeast 230 265 20,900  Level Washington Center
Wed 04:00:30 PM 36.5772 -76.6292 32° Northeast 230 265 20,900  Level Washington Center
Wed 04:01:31 PM 36.6297 -76.5858 34° Northeast 231 266 20,900  Level Washington Center
Wed 04:02:29 PM 36.6842 -76.5450 31° Northeast 226 260 20,900 50 Level Washington Center
Wed 04:03:30 PM 36.7367 -76.5042 32° Northeast 225 259 21,000  Climbing Washington Center
Wed 04:04:36 PM 36.7997 -76.4583 30° Northeast 230 265 20,900  Descending Washington Center
Wed 04:05:40 PM 36.8542 -76.4147 33° Northeast 230 265 21,000 48 Climbing Washington Center
Wed 04:06:40 PM 36.9108 -76.3711 32° Northeast 233 268 21,000 -50 Level Washington Center
Wed 04:07:41 PM 36.9653 -76.3275 33° Northeast 234 269 20,900  Descending Washington Center
Wed 04:08:48 PM 37.0261 -76.2814 31° Northeast 225 259 21,000  Climbing Washington Center
Wed 04:09:42 PM 37.0722 -76.2400 36° Northeast 228 262 20,900  Descending Washington Center
Wed 04:10:43 PM 37.1267 -76.1989 31° Northeast 228 262 21,000  Climbing Washington Center
Wed 04:11:43 PM 37.1811 -76.1575 31° Northeast 250 288 20,900 -50 Descending Washington Center
Wed 04:12:44 PM 37.2378 -76.1161 30° Northeast 250 288 20,900 50 Level Washington Center
Wed 04:13:44 PM 37.2900 -76.0747 32° Northeast 238 274 21,000 50 Climbing Washington Center
Wed 04:14:45 PM 37.3444 -76.0358 30° Northeast 231 266 21,000  Level Washington Center
Wed 04:15:43 PM 37.4028 -75.9997 26° Northeast 231 266 21,000  Level Washington Center
Wed 04:16:44 PM 37.4594 -75.9608 29° Northeast 226 260 21,000  Level Washington Center
Wed 04:17:42 PM 37.5158 -75.9217 29° Northeast 226 260 21,000  Level Washington Center
Wed 04:18:43 PM 37.5722 -75.8800 30° Northeast 226 260 21,000  Level Washington Center
Wed 04:19:44 PM 37.6286 -75.8408 29° Northeast 226 260 21,000  Level Washington Center
Wed 04:20:44 PM 37.6850 -75.8044 27° Northeast 221 254 21,000  Level Washington Center
Wed 04:21:42 PM 37.7414 -75.7678 27° Northeast 221 254 21,000  Level Washington Center
Wed 04:22:43 PM 37.7956 -75.7258 31° Northeast 221 254 21,000  Level Washington Center
Wed 04:23:44 PM 37.8497 -75.6892 28° Northeast 221 254 21,000  Level Washington Center
Wed 04:24:42 PM 37.9019 -75.6497 31° Northeast 221 254 21,000  Level Washington Center
Wed 04:25:43 PM 37.9561 -75.6156 26° Northeast 221 254 21,000  Level Washington Center
Wed 04:26:43 PM 38.0125 -75.5733 31° Northeast 221 254 21,000  Level Washington Center
Wed 04:27:44 PM 38.0583 -75.5389 31° Northeast 221 254 21,000  Level Washington Center
Wed 04:28:42 PM 38.1083 -75.4967 34° Northeast 216 249 21,000  Level Washington Center
Wed 04:29:42 PM 38.1708 -75.4517 30° Northeast 216 249 21,000  Level Washington Center
Wed 04:30:44 PM 38.2208 -75.4042 37° Northeast 222 255 21,000  Level Washington Center
Wed 04:31:42 PM 38.2731 -75.3511 39° Northeast 227 261 21,000  Level Washington Center
Wed 04:32:42 PM 38.3167 -75.3058 39° Northeast 227 261 21,000  Level Washington Center
Wed 04:33:44 PM 38.3667 -75.2553 38° Northeast 227 261 21,000  Level Washington Center
Wed 04:34:44 PM 38.4206 -75.2100 33° Northeast 227 261 21,000  Level Washington Center
Wed 04:35:42 PM 38.4706 -75.1594 38° Northeast 227 261 21,000 -51 Level Washington Center
Wed 04:36:42 PM 38.5225 -75.1142 34° Northeast 227 261 20,900  Descending Washington Center
Wed 04:37:44 PM 38.5744 -75.0633 37° Northeast 227 261 21,000 50 Climbing Washington Center
Wed 04:38:42 PM 38.6283 -75.0125 36° Northeast 227 261 21,000 -51 Level Washington Center
Wed 04:39:42 PM 38.6761 -74.9614 40° Northeast 227 261 20,900  Descending Washington Center
Wed 04:40:42 PM 38.7300 -74.9103 36° Northeast 227 261 21,000  Climbing Washington Center
Wed 04:41:43 PM 38.7797 -74.8647 36° Northeast 222 255 20,900  Descending Washington Center
Wed 04:42:43 PM 38.8294 -74.8189 36° Northeast 222 255 21,000 49 Climbing Washington Center
Wed 04:43:45 PM 38.8811 -74.7703 36° Northeast 222 255 21,000  Level Washington Center
Wed 04:44:42 PM 38.9331 -74.7192 37° Northeast 222 255 21,000 -51 Level Washington Center
Wed 04:45:43 PM 38.9847 -74.6703 36° Northeast 222 255 20,900 -50 Descending Washington Center
Wed 04:46:43 PM 39.0342 -74.6164 40° Northeast 227 261 20,900  Level Washington Center
Wed 04:47:44 PM 39.0861 -74.5700 35° Northeast 227 261 20,900  Level Washington Center
Wed 04:48:42 PM 39.1378 -74.5186 38° Northeast 227 261 20,900  Level Washington Center
Wed 04:49:42 PM 39.1872 -74.4694 38° Northeast 227 261 20,900 50 Level Washington Center
Wed 04:50:43 PM 39.2367 -74.4206 37° Northeast 227 261 21,000 31 Climbing Washington Center
Wed 04:52:55 PM 39.3453 -74.3144 37° Northeast 227 261 21,000  Level New York Center
Wed 04:53:54 PM 39.3969 -74.2658 36° Northeast 227 261 21,000 -50 Level New York Center
Wed 04:54:55 PM 39.4483 -74.2147 38° Northeast 227 261 20,900 -51 Descending New York Center
Wed 04:55:52 PM 39.4997 -74.1661 36° Northeast 227 261 20,900  Level New York Center
Wed 04:56:53 PM 39.5453 -74.1092 44° Northeast 227 261 20,900  Level New York Center
Wed 04:57:53 PM 39.5867 -74.0411 52° Northeast 232 267 20,900  Level New York Center
Wed 04:58:54 PM 39.6303 -73.9731 50° Northeast 237 273 20,900  Level New York Center
Wed 04:59:54 PM 39.6556 -73.8878 69° East 237 273 20,900  Level New York Center
Wed 05:00:55 PM 39.6767 -73.7997 73° East 243 280 20,900 -508 Level New York Center
Wed 05:01:52 PM 39.7219 -73.7397 46° Northeast 253 291 19,900 -1,017 Descending New York Center
Wed 05:02:53 PM 39.7864 -73.6642 42° Northeast 253 291 18,900 -4,377 Descending New York Center
Wed 05:03:54 PM 39.8464 -73.5989 40° Northeast 259 298 11,000 -1,091 Descending New York Center
Wed 05:04:54 PM 39.8978 -73.5361 43° Northeast 264 304 16,700 814 Climbing New York Center
Wed 05:06:51 PM 40.0061 -73.4153 40° Northeast 255 293 13,400 -1,661 Descending Boston Center
Wed 05:07:51 PM 40.0606 -73.3508 42° Northeast 261 300 11,800 -1,150 Descending Boston Center
Wed 05:08:51 PM 40.1133 -73.2892 42° Northeast 261 300 11,100 -400 Descending Boston Center
Wed 05:09:51 PM 40.1594 -73.2356 42° Northeast 240 276 11,000 -50 Descending Boston Center
Wed 05:10:51 PM 40.2014 -73.1817 44° Northeast 222 255 11,000  Level Boston Center
Wed 05:11:51 PM 40.2456 -73.1333 40° Northeast 211 243 11,000  Level Boston Center
Wed 05:12:51 PM 40.2897 -73.0847 40° Northeast 205 236 11,000 -100 Level Boston Center
Wed 05:13:51 PM 40.3317 -73.0281 46° Northeast 205 236 10,800 -900 Descending Boston Center
Wed 05:14:51 PM 40.3819 -72.9686 42° Northeast 217 250 9,200 -614 Descending Boston Center
Wed 05:16:47 PM 40.4667 -72.8667 42° Northeast 212 244 9,000 -68 Descending New York TRACON
Wed 05:17:47 PM 40.5167 -72.8167 37° Northeast 214 246 9,000 -50 Level New York TRACON
Wed 05:18:47 PM 40.5667 -72.7500 45° Northeast 209 241 8,900 -450 Descending New York TRACON
Wed 05:19:47 PM 40.6000 -72.7000 49° Northeast 228 262 8,100 -700 Descending New York TRACON
Wed 05:20:47 PM 40.6667 -72.7000 360° North 205 236 7,500 -500 Descending New York TRACON
Wed 05:21:47 PM 40.7167 -72.7000 360° North 194 223 7,100 -250 Descending New York TRACON
Wed 05:22:47 PM 40.7667 -72.7000 360° North 179 206 7,000 -50 Descending New York TRACON
Wed 05:23:47 PM 40.8167 -72.7000 360° North 170 196 7,000 50 Level New York TRACON
Wed 05:24:47 PM 40.8500 -72.7000 360° North 168 193 7,100 50 Climbing New York TRACON
Wed 05:25:47 PM 40.9000 -72.7000 360° North 168 193 7,100 -50 Level New York TRACON
Wed 05:26:47 PM 40.9500 -72.7000 360° North 175 201 7,000 -48 Descending New York TRACON
Wed 05:27:53 PM 41.0000 -72.7000 360° North 173 199 7,000 95 Level New York TRACON
Wed 05:28:53 PM 41.0333 -72.7500 311° West 172 198 7,200 -526 Climbing New York TRACON
Wed 05:29:47 PM 41.0500 -72.8167 288° West 194 223 6,000 -1,200 Descending New York TRACON
Wed 05:30:53 PM 41.0833 -72.8833 304° West 204 235 4,800 -905 Descending New York TRACON
Wed 05:31:53 PM 41.1000 -72.9500 288° West 195 224 4,100 -421 Descending New York TRACON
Wed 05:32:47 PM 41.1167 -73.0000 294° West 174 200 4,000 -100 Descending New York TRACON
Wed 05:33:53 PM 41.1333 -73.0667 288° West 163 188 3,900  Descending New York TRACON
Wed 05:34:47 PM 41.1500 -73.1167 294° West 156 180 4,000 53 Climbing New York TRACON
Wed 05:35:47 PM 41.1667 -73.1667 294° West 173 199 4,000 50 Level New York TRACON
Wed 05:36:47 PM 41.1667 -73.2333 270° West 171 197 4,100  Climbing New York TRACON
Wed 05:37:47 PM 41.1667 -73.3000 270° West 170 196 4,000 -100 Descending New York TRACON
Wed 05:38:47 PM 41.1833 -73.3500 294° West 167 192 3,900  Descending New York TRACON
Wed 05:39:47 PM 41.1833 -73.4167 270° West 162 186 4,000 -400 Climbing New York TRACON
Wed 05:40:47 PM 41.2167 -73.4667 312° West 167 192 3,100 -800 Descending New York TRACON
Wed 05:41:47 PM 41.2500 -73.5000 323° Northwest 172 198 2,400 -650 Descending New York TRACON
Wed 05:42:47 PM 41.2833 -73.5000 360° North 158 182 1,800 -429 Descending New York TRACON
Wed 05:43:53 PM 41.3167 -73.4667 37° Northeast 114 131 1,500 -238 Descending New York TRACON
Wed 05:44:53 PM 41.3500 -73.4667 360° North 107 123 1,300 -200 Descending New York TRACON

Login

Don't have an account? Register now (free) for customized features, flight alerts, and more!